createdAt,value
2018-08-17T00:00:07.107Z,23.90
2018-08-17T00:02:35.468Z,20.10
2018-08-17T00:05:03.871Z,18.90
2018-08-17T00:07:32.221Z,20.70
2018-08-17T00:10:00.671Z,20.70
2018-08-17T00:12:29.181Z,19.10
2018-08-17T00:14:57.578Z,25.63
2018-08-17T00:17:26.272Z,19.33
2018-08-17T00:19:54.874Z,25.67
2018-08-17T00:22:23.245Z,23.47
2018-08-17T00:24:51.794Z,19.80
2018-08-17T00:27:20.251Z,21.47
2018-08-17T00:29:48.758Z,24.50
2018-08-17T00:32:17.660Z,22.57
2018-08-17T00:34:46.293Z,25.63
2018-08-17T00:37:14.763Z,32.43
2018-08-17T00:39:43.255Z,28.10
2018-08-17T00:42:11.762Z,24.23
2018-08-17T00:44:40.342Z,28.53
2018-08-17T00:47:09.075Z,23.77
2018-08-17T00:49:37.623Z,26.50
2018-08-17T00:52:06.290Z,29.87
2018-08-17T00:54:34.735Z,32.50
2018-08-17T00:57:03.234Z,26.60
2018-08-17T00:59:31.852Z,31.43
2018-08-17T01:02:00.406Z,30.90
2018-08-17T01:04:29.124Z,23.77
2018-08-17T01:06:57.663Z,27.70
2018-08-17T01:09:26.358Z,30.37
2018-08-17T01:11:54.929Z,28.60
2018-08-17T01:14:23.486Z,33.97
2018-08-17T01:16:51.829Z,25.30
2018-08-17T01:19:20.209Z,28.37
2018-08-17T01:21:48.650Z,28.77
2018-08-17T01:24:17.002Z,31.20
2018-08-17T01:26:45.378Z,34.13
2018-08-17T01:29:13.729Z,31.23
2018-08-17T01:31:42.086Z,28.90
2018-08-17T01:34:10.487Z,30.10
2018-08-17T01:36:38.857Z,36.87
2018-08-17T01:39:08.210Z,38.23
2018-08-17T01:41:36.701Z,36.53
2018-08-17T01:44:05.139Z,39.33
2018-08-17T01:46:33.645Z,35.03
2018-08-17T01:49:02.158Z,43.27
2018-08-17T01:51:30.695Z,34.87
2018-08-17T01:53:59.142Z,36.67
2018-08-17T01:56:27.591Z,38.33
2018-08-17T01:58:55.962Z,37.17
2018-08-17T02:01:24.435Z,36.90
2018-08-17T02:03:53.005Z,38.33
2018-08-17T02:06:21.638Z,30.53
2018-08-17T02:08:50.020Z,30.57
2018-08-17T02:11:18.566Z,26.90
2018-08-17T02:13:46.950Z,27.57
2018-08-17T02:16:15.509Z,32.93
2018-08-17T02:18:44.028Z,32.17
2018-08-17T02:21:12.450Z,37.63
2018-08-17T02:23:40.996Z,31.30
2018-08-17T02:26:09.368Z,38.47
2018-08-17T02:28:37.809Z,33.90
2018-08-17T02:31:06.219Z,32.20
2018-08-17T02:33:34.611Z,30.30
2018-08-17T02:36:03.019Z,31.80
2018-08-17T02:38:31.399Z,36.20
2018-08-17T02:40:59.771Z,31.03
2018-08-17T02:43:28.075Z,34.00
2018-08-17T02:45:56.397Z,37.30
2018-08-17T02:48:24.955Z,34.80
2018-08-17T02:50:53.667Z,33.47
2018-08-17T02:53:21.990Z,30.10
2018-08-17T02:55:50.384Z,34.23
2018-08-17T02:58:18.756Z,29.30
2018-08-17T03:00:47.163Z,33.57
2018-08-17T03:03:15.551Z,37.10
2018-08-17T03:05:43.955Z,33.70
2018-08-17T03:08:12.350Z,34.57
2018-08-17T03:10:40.745Z,39.40
2018-08-17T03:13:09.083Z,41.30
2018-08-17T03:15:37.445Z,36.70
2018-08-17T03:18:05.850Z,37.00
2018-08-17T03:20:34.194Z,38.10
2018-08-17T03:23:02.535Z,39.70
2018-08-17T03:25:30.903Z,38.43
2018-08-17T03:27:59.246Z,38.53
2018-08-17T03:30:27.566Z,36.53
2018-08-17T03:32:55.931Z,36.77
2018-08-17T03:35:24.265Z,37.60
2018-08-17T03:37:52.586Z,37.30
2018-08-17T03:40:20.888Z,33.40
2018-08-17T03:42:49.203Z,33.47
2018-08-17T03:45:17.514Z,35.80
2018-08-17T03:47:45.835Z,33.03
2018-08-17T03:50:14.146Z,31.10
2018-08-17T03:52:42.458Z,39.33
2018-08-17T03:55:10.758Z,31.93
2018-08-17T03:57:39.194Z,29.87
2018-08-17T04:00:07.514Z,32.40
2018-08-17T04:02:36.082Z,36.60
2018-08-17T04:05:05.140Z,50.50
2018-08-17T04:07:33.598Z,40.73
2018-08-17T04:10:01.977Z,39.03
2018-08-17T04:12:30.287Z,38.50
2018-08-17T04:14:58.589Z,34.77
2018-08-17T04:17:26.891Z,34.93
2018-08-17T04:19:55.216Z,37.70
2018-08-17T04:22:23.574Z,39.70
2018-08-17T04:24:51.917Z,38.30
2018-08-17T04:27:20.890Z,39.87
2018-08-17T04:29:49.238Z,37.30
2018-08-17T04:32:17.587Z,33.27
2018-08-17T04:34:45.977Z,39.00
2018-08-17T04:37:14.407Z,62.47
2018-08-17T04:39:42.797Z,45.93
2018-08-17T04:42:11.141Z,60.03
2018-08-17T04:44:39.506Z,49.20
2018-08-17T04:47:08.115Z,37.30
2018-08-17T04:49:36.539Z,40.67
2018-08-17T04:52:05.054Z,37.50
2018-08-17T04:54:34.614Z,42.83
2018-08-17T04:57:03.375Z,42.13
2018-08-17T04:59:31.934Z,53.03
2018-08-17T05:02:00.646Z,42.33
2018-08-17T05:04:29.190Z,45.20
2018-08-17T05:06:57.638Z,40.10
2018-08-17T05:09:26.405Z,46.30
2018-08-17T05:11:54.778Z,45.27
2018-08-17T05:14:23.106Z,42.47
2018-08-17T05:16:51.657Z,43.87
2018-08-17T05:19:20.150Z,40.90
2018-08-17T05:21:48.583Z,45.30
2018-08-17T05:24:17.500Z,54.87
2018-08-17T05:26:45.940Z,48.93
2018-08-17T05:29:14.611Z,49.83
2018-08-17T05:31:43.009Z,39.10
2018-08-17T05:34:11.584Z,37.70
2018-08-17T05:36:40.358Z,38.07
2018-08-17T05:39:09.352Z,42.37
2018-08-17T05:41:37.810Z,49.10
2018-08-17T05:44:06.418Z,35.50
2018-08-17T05:46:34.785Z,48.87
2018-08-17T05:49:03.236Z,49.60
2018-08-17T05:51:31.827Z,44.00
2018-08-17T05:54:00.227Z,66.43
2018-08-17T05:56:28.639Z,58.40
2018-08-17T05:58:57.216Z,55.10
2018-08-17T06:01:25.549Z,61.10
2018-08-17T06:03:54.071Z,43.73
2018-08-17T06:06:22.869Z,53.03
2018-08-17T06:08:57.787Z,55.40
2018-08-17T06:11:26.287Z,41.93
2018-08-17T06:13:54.730Z,39.63
2018-08-17T06:16:23.165Z,42.80
2018-08-17T06:18:51.774Z,45.20
2018-08-17T06:21:20.153Z,43.53
2018-08-17T06:23:48.617Z,38.80
2018-08-17T06:26:17.171Z,39.60
2018-08-17T06:28:45.536Z,44.43
2018-08-17T06:31:13.901Z,33.83
2018-08-17T06:33:42.497Z,34.20
2018-08-17T06:36:10.889Z,39.93
2018-08-17T06:38:39.421Z,34.63
2018-08-17T06:41:07.786Z,30.10
2018-08-17T06:43:36.210Z,27.93
2018-08-17T06:46:04.899Z,35.80
2018-08-17T06:48:33.290Z,41.20
2018-08-17T06:51:01.807Z,35.33
2018-08-17T06:53:30.358Z,33.63
2018-08-17T06:55:58.789Z,32.63
2018-08-17T06:58:27.139Z,35.43
2018-08-17T07:00:55.465Z,30.37
2018-08-17T07:03:23.801Z,38.20
2018-08-17T07:05:52.192Z,35.27
2018-08-17T07:08:20.497Z,33.90
2018-08-17T07:10:48.788Z,31.93
2018-08-17T07:13:17.093Z,35.43
2018-08-17T07:15:45.441Z,33.20
2018-08-17T07:18:13.784Z,28.07
2018-08-17T07:20:42.121Z,35.53
2018-08-17T07:23:10.474Z,35.30
2018-08-17T07:25:38.877Z,31.27
2018-08-17T07:28:07.240Z,32.67
2018-08-17T07:30:35.570Z,29.37
2018-08-17T07:33:03.918Z,29.93
2018-08-17T07:35:32.306Z,30.87
2018-08-17T07:38:00.665Z,42.23
2018-08-17T07:40:29.072Z,26.73
2018-08-17T07:42:57.401Z,30.57
2018-08-17T07:45:25.885Z,26.80
2018-08-17T07:47:54.264Z,33.43
2018-08-17T07:50:22.690Z,29.83
2018-08-17T07:52:51.114Z,27.03
2018-08-17T07:55:19.498Z,30.13
2018-08-17T07:57:47.865Z,25.60
2018-08-17T08:00:16.175Z,28.37
2018-08-17T08:02:44.562Z,31.83
2018-08-17T08:05:12.875Z,27.60
2018-08-17T08:07:41.215Z,24.57
2018-08-17T08:10:10.666Z,30.20
2018-08-17T08:12:39.207Z,24.83
2018-08-17T08:15:07.794Z,27.40
2018-08-17T08:17:36.406Z,28.73
2018-08-17T08:20:16.258Z,23.33
2018-08-17T08:22:44.545Z,27.73
2018-08-17T08:25:12.867Z,25.90
2018-08-17T08:27:41.206Z,24.33
2018-08-17T08:30:09.526Z,32.93
2018-08-17T08:32:37.894Z,32.27
2018-08-17T08:35:07.141Z,25.97
2018-08-17T08:37:35.635Z,36.53
2018-08-17T08:40:04.379Z,26.63
2018-08-17T08:42:32.819Z,27.70
2018-08-17T08:45:01.178Z,30.00
2018-08-17T08:47:29.576Z,27.40
2018-08-17T08:49:57.919Z,25.47
2018-08-17T08:52:26.326Z,26.20
2018-08-17T08:54:54.751Z,28.87
2018-08-17T08:57:23.124Z,30.63
2018-08-17T08:59:51.501Z,30.37
2018-08-17T09:02:19.910Z,34.80
2018-08-17T09:04:48.315Z,35.10
2018-08-17T09:07:16.734Z,37.37
2018-08-17T09:09:45.194Z,31.63
2018-08-17T09:12:13.698Z,36.53
2018-08-17T09:14:42.110Z,34.17
2018-08-17T09:17:10.590Z,39.23
2018-08-17T09:19:39.109Z,32.67
2018-08-17T09:22:07.610Z,30.47
2018-08-17T09:24:37.154Z,28.00
2018-08-17T09:27:05.889Z,27.00
2018-08-17T09:29:34.253Z,24.30
2018-08-17T09:32:02.739Z,24.70
2018-08-17T09:34:31.271Z,27.53
2018-08-17T09:36:59.791Z,22.07
2018-08-17T09:39:28.608Z,21.67
2018-08-17T09:41:57.140Z,20.27
2018-08-17T09:44:25.834Z,17.83
2018-08-17T09:46:54.281Z,28.00
2018-08-17T09:49:22.684Z,44.17
2018-08-17T09:51:51.096Z,28.50
2018-08-17T09:54:19.583Z,24.17
2018-08-17T09:56:48.046Z,27.03
2018-08-17T09:59:16.554Z,28.40
2018-08-17T10:01:51.370Z,29.83
2018-08-17T10:04:25.081Z,28.83
2018-08-17T10:06:58.981Z,29.43
2018-08-17T10:09:32.963Z,31.97
2018-08-17T10:12:01.502Z,32.03
2018-08-17T10:14:31.212Z,30.63
2018-08-17T10:16:59.877Z,26.80
2018-08-17T10:19:28.562Z,25.00
2018-08-17T10:21:57.500Z,20.30
2018-08-17T10:24:25.920Z,23.90
2018-08-17T10:26:55.044Z,27.23
2018-08-17T10:29:23.663Z,29.23
2018-08-17T10:31:52.086Z,22.97
2018-08-17T10:34:20.636Z,24.07
2018-08-17T10:36:49.060Z,26.23
2018-08-17T10:39:17.424Z,25.70
2018-08-17T10:41:45.821Z,30.10
2018-08-17T10:44:14.166Z,27.17
2018-08-17T10:46:42.875Z,23.73
2018-08-17T10:49:11.539Z,23.50
2018-08-17T10:51:40.178Z,29.03
2018-08-17T10:54:08.738Z,21.27
2018-08-17T10:56:37.193Z,24.07
2018-08-17T10:59:05.620Z,23.17
2018-08-17T11:01:33.967Z,20.97
2018-08-17T11:04:02.283Z,21.63
2018-08-17T11:06:30.803Z,26.77
2018-08-17T11:08:59.475Z,22.47
2018-08-17T11:11:27.857Z,22.20
2018-08-17T11:13:56.294Z,24.20
2018-08-17T11:16:24.610Z,22.50
2018-08-17T11:18:54.195Z,21.17
2018-08-17T11:21:22.510Z,21.57
2018-08-17T11:23:50.818Z,20.30
2018-08-17T11:26:25.473Z,22.13
2018-08-17T11:28:53.860Z,16.53
2018-08-17T11:31:22.223Z,23.13
2018-08-17T11:33:50.590Z,27.90
2018-08-17T11:36:22.562Z,21.00
2018-08-17T11:38:50.991Z,23.70
2018-08-17T11:41:19.702Z,16.40
2018-08-17T11:43:48.299Z,17.50
2018-08-17T11:46:16.622Z,20.00
2018-08-17T11:48:45.110Z,17.93
2018-08-17T11:51:13.603Z,17.17
2018-08-17T11:53:46.480Z,23.13
2018-08-17T11:56:14.915Z,15.93
2018-08-17T11:58:43.588Z,16.37
2018-08-17T12:01:17.977Z,17.00
2018-08-17T12:03:46.418Z,14.70
2018-08-17T12:06:15.328Z,15.30
2018-08-17T12:08:44.030Z,11.00
2018-08-17T12:11:12.407Z,10.30
2018-08-17T12:13:40.727Z,8.00
2018-08-17T12:16:12.459Z,12.10
2018-08-17T12:18:41.070Z,12.90
2018-08-17T12:21:09.687Z,8.80
2018-08-17T12:23:39.030Z,8.23
2018-08-17T12:26:07.377Z,10.80
2018-08-17T12:28:35.694Z,10.97
2018-08-17T12:31:04.041Z,11.60
2018-08-17T12:33:32.680Z,10.50
2018-08-17T12:36:01.033Z,11.03
2018-08-17T12:38:29.418Z,12.37
2018-08-17T12:40:58.521Z,8.93
2018-08-17T12:43:30.331Z,15.00
2018-08-17T12:45:58.864Z,12.57
2018-08-17T12:48:27.418Z,14.50
2018-08-17T12:51:00.439Z,10.00
2018-08-17T12:53:29.276Z,10.97
2018-08-17T12:55:57.987Z,11.57
2018-08-17T12:58:26.472Z,13.20
2018-08-17T13:00:55.029Z,10.23
2018-08-17T13:03:24.000Z,9.23
2018-08-17T13:05:52.748Z,11.70
2018-08-17T13:08:21.960Z,16.63
2018-08-17T13:10:51.100Z,10.30
2018-08-17T13:13:19.672Z,7.90
2018-08-17T13:15:53.593Z,10.33
2018-08-17T13:18:22.606Z,11.53
2018-08-17T13:20:51.372Z,16.93
2018-08-17T13:23:20.306Z,19.10
2018-08-17T13:25:49.075Z,11.87
2018-08-17T13:28:17.567Z,21.20
2018-08-17T13:30:46.916Z,14.73
2018-08-17T13:33:15.445Z,14.60
2018-08-17T13:35:43.802Z,10.47
2018-08-17T13:38:12.342Z,7.70
2018-08-17T13:40:40.814Z,7.50
2018-08-17T13:43:09.342Z,7.77
2018-08-17T13:45:37.996Z,10.27
2018-08-17T13:48:06.705Z,6.43
2018-08-17T13:50:35.258Z,6.73
2018-08-17T13:53:04.080Z,8.50
2018-08-17T13:55:32.828Z,10.43
2018-08-17T13:58:01.611Z,9.30
2018-08-17T14:00:30.189Z,18.93
2018-08-17T14:02:58.849Z,10.30
2018-08-17T14:05:27.390Z,8.63
2018-08-17T14:07:56.057Z,9.97
2018-08-17T14:10:24.547Z,10.80
2018-08-17T14:12:52.990Z,10.60
2018-08-17T14:15:22.667Z,11.50
2018-08-17T14:17:51.175Z,14.70
2018-08-17T14:20:19.632Z,11.73
2018-08-17T14:22:48.030Z,13.97
2018-08-17T14:25:16.392Z,13.47
2018-08-17T14:27:44.855Z,17.07
2018-08-17T14:30:16.890Z,13.90
2018-08-17T14:32:45.424Z,15.13
2018-08-17T14:35:14.484Z,15.53
2018-08-17T14:37:42.758Z,14.73
2018-08-17T14:40:11.483Z,14.23
2018-08-17T14:42:40.317Z,13.30
2018-08-17T14:45:09.566Z,17.00
2018-08-17T14:47:38.198Z,13.50
2018-08-17T14:50:11.837Z,12.27
2018-08-17T14:52:40.285Z,13.97
2018-08-17T14:55:09.184Z,14.37
2018-08-17T14:57:38.546Z,13.67
2018-08-17T15:00:11.345Z,19.03
2018-08-17T15:02:40.448Z,20.30
2018-08-17T15:05:10.786Z,13.10
2018-08-17T15:07:39.518Z,14.30
2018-08-17T15:10:09.038Z,13.83
2018-08-17T15:12:37.560Z,13.53
2018-08-17T15:15:06.364Z,16.13
2018-08-17T15:17:34.884Z,15.27
2018-08-17T15:20:03.578Z,15.80
2018-08-17T15:22:32.327Z,15.40
2018-08-17T15:25:00.720Z,15.40
2018-08-17T15:27:29.215Z,16.80
2018-08-17T15:29:57.772Z,14.50
2018-08-17T15:32:26.319Z,14.17
2018-08-17T15:34:55.367Z,16.60
2018-08-17T15:37:23.702Z,15.67
2018-08-17T15:39:52.046Z,16.67
2018-08-17T15:42:20.369Z,17.13
2018-08-17T15:44:48.962Z,17.07
2018-08-17T15:47:17.391Z,19.63
2018-08-17T15:50:03.060Z,18.30
2018-08-17T15:52:32.187Z,19.90
2018-08-17T15:55:01.427Z,23.17
2018-08-17T15:57:30.079Z,20.17
2018-08-17T15:59:58.742Z,27.13
2018-08-17T16:02:27.990Z,24.00
2018-08-17T16:04:56.553Z,28.40
2018-08-17T16:07:24.908Z,27.00
2018-08-17T16:09:54.847Z,24.33
2018-08-17T16:12:23.520Z,29.40
2018-08-17T16:14:51.963Z,32.50
2018-08-17T16:17:20.464Z,31.30
2018-08-17T16:19:49.146Z,34.80
2018-08-17T16:22:17.514Z,37.27
2018-08-17T16:24:46.290Z,36.87
2018-08-17T16:27:14.734Z,36.90
2018-08-17T16:29:43.155Z,34.07
2018-08-17T16:32:11.779Z,35.10
2018-08-17T16:34:40.170Z,32.17
2018-08-17T16:37:08.665Z,33.10
2018-08-17T16:39:43.499Z,36.80
2018-08-17T16:42:15.019Z,34.93
2018-08-17T16:44:43.511Z,33.57
2018-08-17T16:47:11.962Z,34.17
2018-08-17T16:49:40.415Z,35.40
2018-08-17T16:52:09.010Z,37.63
2018-08-17T16:54:37.555Z,37.20
2018-08-17T16:57:06.007Z,37.47
2018-08-17T16:59:34.442Z,35.70
2018-08-17T17:02:02.940Z,38.37
2018-08-17T17:04:36.988Z,38.20
2018-08-17T17:07:05.621Z,37.57
2018-08-17T17:09:34.046Z,37.50
2018-08-17T17:12:02.558Z,39.00
2018-08-17T17:14:30.978Z,36.30
2018-08-17T17:16:59.553Z,38.70
2018-08-17T17:19:28.060Z,38.27
2018-08-17T17:21:56.530Z,38.50
2018-08-17T17:24:25.030Z,34.60
2018-08-17T17:26:53.823Z,36.97
2018-08-17T17:29:23.425Z,37.97
2018-08-17T17:31:52.260Z,39.63
2018-08-17T17:34:20.849Z,37.30
2018-08-17T17:36:49.370Z,38.30
2018-08-17T17:39:17.834Z,47.53
2018-08-17T17:41:46.381Z,39.03
2018-08-17T17:44:14.878Z,43.97
2018-08-17T17:46:43.396Z,42.47
2018-08-17T17:49:12.048Z,37.80
2018-08-17T17:51:40.472Z,45.10
2018-08-17T17:54:09.031Z,35.83
2018-08-17T17:56:37.474Z,37.20
2018-08-17T17:59:14.444Z,34.87
2018-08-17T18:01:43.082Z,41.67
2018-08-17T18:04:11.580Z,38.80
2018-08-17T18:06:40.109Z,39.33
2018-08-17T18:09:08.550Z,35.50
2018-08-17T18:11:37.089Z,40.07
2018-08-17T18:14:05.570Z,42.30
2018-08-17T18:16:34.832Z,39.87
2018-08-17T18:19:03.234Z,37.00
2018-08-17T18:21:33.281Z,39.17
2018-08-17T18:24:07.148Z,36.47
2018-08-17T18:26:35.871Z,36.60
2018-08-17T18:29:04.436Z,36.93
2018-08-17T18:31:33.073Z,39.17
2018-08-17T18:34:01.886Z,32.63
2018-08-17T18:36:30.784Z,34.63
2018-08-17T18:38:59.491Z,39.90
2018-08-17T18:41:28.285Z,35.77
2018-08-17T18:43:57.161Z,32.27
2018-08-17T18:46:27.244Z,33.90
2018-08-17T18:48:55.829Z,34.70
2018-08-17T18:51:24.354Z,33.70
2018-08-17T18:53:53.203Z,29.83
2018-08-17T18:56:21.929Z,30.27
2018-08-17T18:58:50.577Z,29.93
2018-08-17T19:01:19.277Z,28.53
2018-08-17T19:03:47.939Z,30.20
2018-08-17T19:06:16.385Z,25.80
2018-08-17T19:08:45.074Z,25.23
2018-08-17T19:11:13.710Z,19.10
2018-08-17T19:13:42.288Z,16.93
2018-08-17T19:16:10.969Z,20.20
2018-08-17T19:18:39.791Z,21.00
2018-08-17T19:21:10.621Z,20.07
2018-08-17T19:23:39.245Z,12.80
2018-08-17T19:26:08.726Z,16.30
2018-08-17T19:28:37.166Z,17.27
2018-08-17T19:31:05.786Z,15.40
2018-08-17T19:33:34.379Z,18.53
2018-08-17T19:36:03.606Z,21.53
2018-08-17T19:38:41.636Z,16.13
2018-08-17T19:41:10.115Z,17.30
2018-08-17T19:43:38.978Z,20.80
2018-08-17T19:46:07.538Z,16.10
2018-08-17T19:48:35.959Z,16.30
2018-08-17T19:51:09.935Z,13.70
2018-08-17T19:53:38.271Z,11.20
2018-08-17T19:56:06.678Z,14.47
2018-08-17T19:58:35.000Z,14.13
2018-08-17T20:01:03.375Z,12.67
2018-08-17T20:03:32.045Z,16.47
2018-08-17T20:06:00.535Z,22.13
2018-08-17T20:08:29.277Z,11.87
2018-08-17T20:10:57.654Z,11.13
2018-08-17T20:13:26.211Z,9.93
2018-08-17T20:15:54.702Z,12.30
2018-08-17T20:18:25.150Z,10.40
2018-08-17T20:20:53.497Z,11.93
2018-08-17T20:23:21.860Z,12.80
2018-08-17T20:25:50.297Z,11.23
2018-08-17T20:28:18.551Z,13.53
2018-08-17T20:30:46.918Z,15.00
2018-08-17T20:33:21.487Z,12.10
2018-08-17T20:35:50.386Z,10.13
2018-08-17T20:38:18.726Z,16.57
2018-08-17T20:40:47.411Z,11.43
2018-08-17T20:43:15.965Z,8.77
2018-08-17T20:45:44.601Z,12.67
2018-08-17T20:48:12.963Z,11.73
2018-08-17T20:50:42.448Z,17.03
2018-08-17T20:53:13.201Z,8.40
2018-08-17T20:55:41.827Z,9.67
2018-08-17T20:58:10.178Z,12.27
2018-08-17T21:00:38.963Z,10.60
2018-08-17T21:03:07.490Z,10.53
2018-08-17T21:05:35.964Z,10.90
2018-08-17T21:08:04.423Z,9.10
2018-08-17T21:10:33.140Z,9.87
2018-08-17T21:13:01.726Z,14.17
2018-08-17T21:15:30.056Z,12.60
2018-08-17T21:17:58.493Z,14.67
2018-08-17T21:20:27.221Z,11.87
2018-08-17T21:22:55.796Z,9.30
2018-08-17T21:25:24.095Z,13.53
2018-08-17T21:27:52.398Z,11.00
2018-08-17T21:30:20.836Z,6.50
2018-08-17T21:32:49.146Z,7.73
2018-08-17T21:35:17.481Z,10.07
2018-08-17T21:37:45.795Z,8.53
2018-08-17T21:40:20.605Z,6.83
2018-08-17T21:42:48.907Z,8.07
2018-08-17T21:45:17.431Z,12.07
2018-08-17T21:47:45.936Z,16.47
2018-08-17T21:50:16.368Z,8.77
2018-08-17T21:52:45.313Z,16.33
2018-08-17T21:55:14.175Z,8.43
2018-08-17T21:57:42.985Z,8.13
2018-08-17T22:00:28.692Z,12.80
2018-08-17T22:02:57.074Z,8.40
2018-08-17T22:05:28.263Z,8.90
2018-08-17T22:07:56.642Z,9.20
2018-08-17T22:10:25.021Z,13.40
2018-08-17T22:12:54.377Z,9.90
2018-08-17T22:17:59.162Z,8.23
2018-08-17T22:20:27.497Z,9.93
2018-08-17T22:22:55.979Z,6.30
2018-08-17T22:25:24.292Z,8.33
2018-08-17T22:27:52.637Z,7.47
2018-08-17T22:30:22.730Z,9.60
2018-08-17T22:32:51.645Z,6.03
2018-08-17T22:35:20.077Z,10.50
2018-08-17T22:37:48.501Z,8.53
2018-08-17T22:40:16.889Z,8.83
2018-08-17T22:42:46.945Z,11.10
2018-08-17T22:45:15.177Z,5.07
2018-08-17T22:47:43.489Z,7.23
2018-08-17T22:50:12.091Z,9.00
2018-08-17T22:52:40.520Z,9.33
2018-08-17T22:55:09.456Z,9.50
2018-08-17T22:57:37.778Z,7.20
2018-08-17T23:00:20.530Z,8.83
2018-08-17T23:02:50.307Z,14.97
2018-08-17T23:05:20.217Z,6.40
2018-08-17T23:07:48.543Z,9.90
2018-08-17T23:10:18.291Z,10.23
2018-08-17T23:12:47.736Z,11.17
2018-08-17T23:15:16.235Z,9.67
2018-08-17T23:17:49.223Z,6.40
2018-08-17T23:20:21.819Z,6.37
2018-08-17T23:22:52.295Z,10.27
2018-08-17T23:25:20.620Z,4.90
2018-08-17T23:27:49.584Z,8.13
2018-08-17T23:30:17.909Z,16.67
2018-08-17T23:32:46.491Z,8.40
2018-08-17T23:35:14.863Z,16.20
2018-08-17T23:37:43.420Z,10.40
2018-08-17T23:40:11.904Z,7.13
2018-08-17T23:42:40.433Z,5.77
2018-08-17T23:45:11.022Z,8.27
2018-08-17T23:47:39.451Z,10.60
2018-08-17T23:50:09.294Z,9.23
2018-08-17T23:52:37.635Z,8.70
2018-08-17T23:55:06.502Z,23.67
2018-08-17T23:57:35.364Z,11.90
